Date,TemperatureHighF,TemperatureAvgF,TemperatureLowF,DewpointHighF,DewpointAvgF,DewpointLowF,HumidityHigh,HumidityAvg,HumidityLow,PressureMaxIn,PressureMinIn,WindSpeedMaxMPH,WindSpeedAvgMPH,GustSpeedMaxMPH,PrecipitationSumIn
2013-10-1,91.0,75.6,67.4,70.0,67.3,63.7,98,78,42,30.01,29.91,4,1,11,0.05
2013-10-2,90.8,77.2,69.8,69.2,65.3,54.8,95,71,32,30.04,29.94,4,1,9,0.00
2013-10-3,93.2,78.4,67.1,68.4,65.3,60.5,92,67,35,29.99,29.87,5,1,10,0.00
2013-10-4,92.3,77.6,69.9,71.4,69.1,66.3,98,77,44,30.00,29.90,5,1,11,0.00
2013-10-5,93.2,80.8,73.7,73.0,68.5,61.7,93,69,37,29.96,29.81,5,1,13,0.22
2013-10-6,75.9,64.0,53.9,73.0,50.3,35.4,94,66,23,29.95,29.81,7,2,16,0.50
2013-10-7,75.2,58.0,44.9,50.9,44.2,37.9,95,65,26,30.09,29.94,5,1,12,0.00
2013-10-8,82.7,60.7,44.9,51.9,44.7,33.8,95,63,18,30.14,30.01,6,1,12,0.00
2013-10-9,84.7,66.2,51.4,61.9,55.9,48.3,92,73,37,30.12,30.01,4,1,8,0.00
2013-10-10,88.5,68.4,55.0,67.1,56.5,44.9,99,72,23,30.12,29.96,4,0,6,0.00
2013-10-11,90.8,69.6,55.0,67.5,55.1,43.3,99,68,20,30.03,29.91,4,1,9,0.00
2013-10-12,84.0,66.9,57.0,68.0,61.5,54.7,99,84,49,30.09,29.94,5,0,13,0.11
2013-10-13,85.8,70.0,60.2,66.8,59.7,50.6,99,74,35,30.22,30.08,4,1,9,0.01
2013-10-14,87.9,69.5,53.6,62.2,53.2,46.6,83,61,25,30.20,30.00,2,0,7,0.00
2013-10-15,74.1,69.7,66.5,68.2,63.0,59.0,99,80,63,30.01,29.90,4,1,12,0.41
2013-10-16,67.6,61.2,56.3,67.3,59.1,53.4,99,93,74,30.00,29.90,6,1,15,0.31
2013-10-17,72.8,59.6,46.5,58.5,51.7,39.6,99,79,30,30.01,29.92,5,1,11,0.02
2013-10-18,79.8,58.8,42.2,55.9,44.3,31.9,99,67,18,30.06,29.90,3,0,6,0.01
2013-10-19,64.7,53.3,39.7,55.2,44.5,31.2,97,75,29,30.07,29.88,8,1,15,0.01
2013-10-20,76.2,51.8,37.2,43.9,35.1,15.3,97,65,10,30.10,29.96,4,1,8,0.07
2013-10-21,80.2,57.3,39.7,52.9,40.2,25.8,95,63,14,30.07,29.93,6,1,15,0.01
2013-10-22,74.3,58.8,50.3,53.5,40.2,13.2,93,60,10,30.06,29.86,5,1,12,0.04
2013-10-23,65.1,51.2,41.0,43.7,32.1,15.9,89,54,15,30.15,29.91,7,1,16,0.00
2013-10-24,68.1,50.7,37.9,44.3,34.1,21.6,90,59,19,30.37,30.09,8,1,15,0.00
2013-10-25,59.3,41.4,31.2,31.8,22.2,0.4,87,56,10,30.53,30.33,6,1,11,0.00
2013-10-26,69.8,51.1,32.7,44.0,28.7,11.9,84,49,13,30.33,30.05,6,1,12,0.00
2013-10-27,74.3,60.2,51.2,56.3,50.8,43.4,90,72,38,30.09,29.98,4,1,8,0.00
2013-10-28,76.8,61.8,54.1,57.4,54.2,48.2,98,79,37,30.21,30.03,3,0,5,0.00
2013-10-29,80.4,65.0,50.3,64.1,57.3,48.4,99,79,43,30.23,30.07,5,1,11,0.00
2013-10-30,77.9,69.9,61.7,62.5,60.2,57.8,92,72,54,30.15,29.92,6,2,15,0.00
2013-10-31,71.9,68.5,61.8,68.1,63.2,45.2,99,84,45,29.91,29.51,10,4,24,1.32